Hartland Point — ZIQS6 — position and weather

sailwx.info

Track history (hours):
 
Tides and Currents Weather Stations Pressure Air Temp Water Temp Dewpoint Dewpoint Depression Visibility Wind Speed Wind Dir Waves Ship Positions

Hartland Point

Last reported at 2017-Aug-06 04:29 UTC. Time now 2017-Aug-20 00:19 UTC.
Position N 49°53' W 004°47'.
Warning: this ship's position is 13 days out of date.

Length 193 m; draft 6.3 m.

Type: Ship. MMSI: 235505000.

Date/timePositionNaut miles runAvg speedWind from/ knotsBaromVisibWave heightAir tempDewpointWater temp
2017-Aug-06 04:29N 49°53' W 004°47'1216.6
2017-Aug-06 03:45N 49°54' W 004°28'916.6
2017-Aug-06 03:12N 49°55' W 004°14'516.8
2017-Aug-06 02:54N 49°55' W 004°06'716.9
2017-Aug-06 02:30N 49°56' W 003°56'917.3
2017-Aug-06 02:00N 49°57' W 003°43'917.9
2017-Aug-06 01:30N 49°58' W 003°29'918.3
2017-Aug-06 01:00N 49°58' W 003°15'918.7
2017-Aug-06 00:30N 49°59' W 003°00'3918.8
2017-Aug-05 22:27N 50°05' W 002°01'817.8
2017-Aug-05 22:01N 50°06' W 001°49'816.2
2017-Aug-05 21:30N 50°04' W 001°36'816.2
2017-Aug-05 21:00N 49°60' W 001°25'815.7
2017-Aug-05 20:30N 49°56' W 001°15'815.4
2017-Aug-05 20:00N 49°52' W 001°05'715.0
2017-Aug-05 19:31N 49°48' W 000°55'2815.3
2017-Aug-05 17:38N 49°34' W 000°17'215.7
2017-Aug-05 17:30N 49°33' W 000°13'714.6
2017-Aug-05 17:00N 49°31' W 000°03'611.5
2017-Aug-05 16:30N 49°29' E 000°06'3 6.3
2017-Aug-05 16:00N 49°29' E 000°10'0 0.0
2017-Aug-05 15:30N 49°29' E 000°10'1 1.1
2017-Aug-05 15:00N 49°29' E 000°11'1 1.0
2017-Aug-05 14:28N 49°28' E 000°12'0 0.0
2017-Aug-05 14:00N 49°28' E 000°12'0 0.0
2017-Aug-05 13:27N 49°28' E 000°12'0 0.0
2017-Aug-05 13:00N 49°28' E 000°12'0 0.0
2017-Aug-05 12:31N 49°28' E 000°12'0 0.0
2017-Aug-05 12:01N 49°28' E 000°12'0 0.0
2017-Aug-05 11:31N 49°28' E 000°12'0 0.0
2017-Aug-05 11:01N 49°28' E 000°12'0 0.0
2017-Aug-05 10:31N 49°28' E 000°12'0 0.0
2017-Aug-05 10:01N 49°28' E 000°12'0 0.0
2017-Aug-05 09:30N 49°28' E 000°12'0 0.0
2017-Aug-05 08:57N 49°28' E 000°12'0 0.0
2017-Aug-05 08:30N 49°28' E 000°12'0 0.0
2017-Aug-05 08:01N 49°28' E 000°12'0 0.0
2017-Aug-05 07:30N 49°28' E 000°12'0 0.3
2017-Aug-05 07:00N 49°28' E 000°12'1 2.0
2017-Aug-05 06:30N 49°29' E 000°10'0 0.1
2017-Aug-05 06:00N 49°29' E 000°10'1 1.5
2017-Aug-05 05:30N 49°28' E 000°09'2 4.3
2017-Aug-05 05:00N 49°29' E 000°06'612.5
2017-Aug-05 04:30N 49°31' W 000°03'612.4
2017-Aug-05 04:00N 49°33' W 000°12'5 9.9
2017-Aug-05 03:30N 49°36' W 000°17'1 1.0
2017-Aug-05 03:00N 49°37' W 000°17'0 0.0
2017-Aug-04 20:57N 49°37' W 000°17'0 0.0
2017-Aug-04 20:24N 49°37' W 000°17'0 0.0
2017-Aug-04 18:54N 49°37' W 000°17'0 0.0
2017-Aug-04 17:06N 49°37' W 000°17'0 0.0
2017-Aug-04 16:48N 49°37' W 000°17'0 0.0
2017-Aug-04 16:18N 49°37' W 000°17'0 0.1
2017-Aug-04 15:51N 49°37' W 000°17'0 0.0
2017-Aug-04 15:21N 49°37' W 000°17'0 0.0
2017-Aug-04 14:57N 49°37' W 000°17'0 0.0
2017-Aug-04 13:57N 49°37' W 000°17'0 0.0
2017-Aug-04 13:27N 49°37' W 000°17'0 0.0
2017-Aug-04 10:39N 49°37' W 000°17'0 0.0
2017-Aug-04 10:30N 49°37' W 000°17'0 0.1
2017-Aug-04 09:18N 49°37' W 000°17'1 4.6
2017-Aug-04 09:00N 49°37' W 000°19'9311.0
2017-Aug-04 00:29N 50°24' W 002°24'5410.9
2017-Aug-03 19:30N 50°35' W 001°00'612.5
2017-Aug-03 19:00N 50°41' W 000°58'612.1
2017-Aug-03 18:31N 50°45' W 001°06'816.8
2017-Aug-03 18:01N 50°47' W 001°19'5 9.8
2017-Aug-03 17:31N 50°51' W 001°21'3 0.6
2017-Aug-03 12:04N 50°54' W 001°25'0 0.0
2017-Aug-03 11:58N 50°54' W 001°25'1 2.0
2017-Aug-03 11:29N 50°54' W 001°26'0 0.1
2017-Aug-03 11:00N 50°54' W 001°26'0 0.1
2017-Aug-03 10:20N 50°54' W 001°26'1 0.0
2017-Aug-02 09:52N 50°54' W 001°25'  
2017-Jul-29 18:46N 50°54' W 001°25'0 0.0
2017-Jul-29 13:58N 50°54' W 001°25'0 0.1
2017-Jul-29 10:51N 50°54' W 001°25'2 4.5
2017-Jul-29 10:30N 50°53' W 001°23'5 9.3
2017-Jul-29 10:00N 50°49' W 001°18'4 8.3
2017-Jul-29 09:31N 50°46' W 001°14'815.2
2017-Jul-29 09:00N 50°44' W 001°03'5 9.4
2017-Jul-29 08:31N 50°40' W 000°59'510.0
2017-Jul-29 08:00N 50°35' W 000°60'714.2
2017-Jul-29 07:29N 50°32' W 001°11'5113.3
2017-Jul-29 03:39N 50°20' W 002°29'413.1
2017-Jul-29 03:22N 50°19' W 002°34'513.3
2017-Jul-29 03:00N 50°18' W 002°42'613.0
2017-Jul-29 02:30N 50°14' W 002°50'713.3
2017-Jul-29 02:00N 50°12' W 002°59'5 9.6
2017-Jul-29 01:30N 50°14' W 002°53'3 6.0
2017-Jul-29 01:01N 50°16' W 002°56'611.8
2017-Jul-29 00:31N 50°12' W 003°04'510.6
2017-Jul-29 00:00N 50°13' W 003°12'714.3
2017-Jul-28 23:30N 50°11' W 003°23'714.6
2017-Jul-28 23:00N 50°08' W 003°33'714.5
2017-Jul-28 22:30N 50°05' W 003°44'714.7
2017-Jul-28 22:00N 50°03' W 003°55'714.6
2017-Jul-28 21:30N 50°01' W 004°06'714.6
2017-Jul-28 21:00N 49°60' W 004°17'714.4
2017-Jul-28 20:30N 49°58' W 004°28'  
Track history (hours):
 
Tides and Currents Weather Stations Pressure Air Temp Water Temp Dewpoint Dewpoint Depression Visibility Wind Speed Wind Dir Waves Ship Positions

Hartland Point

Last reported at 2017-Aug-06 04:29 UTC. Time now 2017-Aug-20 00:19 UTC.
Position N 49°53' W 004°47'.
Warning: this ship's position is 13 days out of date.

Length 193 m; draft 6.3 m.

Type: Ship. MMSI: 235505000.

Date/timePositionNaut miles runAvg speedWind from/ knotsBaromVisibWave heightAir tempDewpointWater temp
2017-Aug-06 04:29N 49°53' W 004°47'1216.6
2017-Aug-06 03:45N 49°54' W 004°28'916.6
2017-Aug-06 03:12N 49°55' W 004°14'516.8
2017-Aug-06 02:54N 49°55' W 004°06'716.9
2017-Aug-06 02:30N 49°56' W 003°56'917.3
2017-Aug-06 02:00N 49°57' W 003°43'917.9
2017-Aug-06 01:30N 49°58' W 003°29'918.3
2017-Aug-06 01:00N 49°58' W 003°15'918.7
2017-Aug-06 00:30N 49°59' W 003°00'3918.8
2017-Aug-05 22:27N 50°05' W 002°01'817.8
2017-Aug-05 22:01N 50°06' W 001°49'816.2
2017-Aug-05 21:30N 50°04' W 001°36'816.2
2017-Aug-05 21:00N 49°60' W 001°25'815.7
2017-Aug-05 20:30N 49°56' W 001°15'815.4
2017-Aug-05 20:00N 49°52' W 001°05'715.0
2017-Aug-05 19:31N 49°48' W 000°55'2815.3
2017-Aug-05 17:38N 49°34' W 000°17'215.7
2017-Aug-05 17:30N 49°33' W 000°13'714.6
2017-Aug-05 17:00N 49°31' W 000°03'611.5
2017-Aug-05 16:30N 49°29' E 000°06'3 6.3
2017-Aug-05 16:00N 49°29' E 000°10'0 0.0
2017-Aug-05 15:30N 49°29' E 000°10'1 1.1
2017-Aug-05 15:00N 49°29' E 000°11'1 1.0
2017-Aug-05 14:28N 49°28' E 000°12'0 0.0
2017-Aug-05 14:00N 49°28' E 000°12'0 0.0
2017-Aug-05 13:27N 49°28' E 000°12'0 0.0
2017-Aug-05 13:00N 49°28' E 000°12'0 0.0
2017-Aug-05 12:31N 49°28' E 000°12'0 0.0
2017-Aug-05 12:01N 49°28' E 000°12'0 0.0
2017-Aug-05 11:31N 49°28' E 000°12'0 0.0
2017-Aug-05 11:01N 49°28' E 000°12'0 0.0
2017-Aug-05 10:31N 49°28' E 000°12'0 0.0
2017-Aug-05 10:01N 49°28' E 000°12'0 0.0
2017-Aug-05 09:30N 49°28' E 000°12'0 0.0
2017-Aug-05 08:57N 49°28' E 000°12'0 0.0
2017-Aug-05 08:30N 49°28' E 000°12'0 0.0
2017-Aug-05 08:01N 49°28' E 000°12'0 0.0
2017-Aug-05 07:30N 49°28' E 000°12'0 0.3
2017-Aug-05 07:00N 49°28' E 000°12'1 2.0
2017-Aug-05 06:30N 49°29' E 000°10'0 0.1
2017-Aug-05 06:00N 49°29' E 000°10'1 1.5
2017-Aug-05 05:30N 49°28' E 000°09'2 4.3
2017-Aug-05 05:00N 49°29' E 000°06'612.5
2017-Aug-05 04:30N 49°31' W 000°03'612.4
2017-Aug-05 04:00N 49°33' W 000°12'5 9.9
2017-Aug-05 03:30N 49°36' W 000°17'1 1.0
2017-Aug-05 03:00N 49°37' W 000°17'0 0.0
2017-Aug-04 20:57N 49°37' W 000°17'0 0.0
2017-Aug-04 20:24N 49°37' W 000°17'0 0.0
2017-Aug-04 18:54N 49°37' W 000°17'0 0.0
2017-Aug-04 17:06N 49°37' W 000°17'0 0.0
2017-Aug-04 16:48N 49°37' W 000°17'0 0.0
2017-Aug-04 16:18N 49°37' W 000°17'0 0.1
2017-Aug-04 15:51N 49°37' W 000°17'0 0.0
2017-Aug-04 15:21N 49°37' W 000°17'0 0.0
2017-Aug-04 14:57N 49°37' W 000°17'0 0.0
2017-Aug-04 13:57N 49°37' W 000°17'0 0.0
2017-Aug-04 13:27N 49°37' W 000°17'0 0.0
2017-Aug-04 10:39N 49°37' W 000°17'0 0.0
2017-Aug-04 10:30N 49°37' W 000°17'0 0.1
2017-Aug-04 09:18N 49°37' W 000°17'1 4.6
2017-Aug-04 09:00N 49°37' W 000°19'9311.0
2017-Aug-04 00:29N 50°24' W 002°24'5410.9
2017-Aug-03 19:30N 50°35' W 001°00'612.5
2017-Aug-03 19:00N 50°41' W 000°58'612.1
2017-Aug-03 18:31N 50°45' W 001°06'816.8
2017-Aug-03 18:01N 50°47' W 001°19'5 9.8
2017-Aug-03 17:31N 50°51' W 001°21'3 0.6
2017-Aug-03 12:04N 50°54' W 001°25'0 0.0
2017-Aug-03 11:58N 50°54' W 001°25'1 2.0
2017-Aug-03 11:29N 50°54' W 001°26'0 0.1
2017-Aug-03 11:00N 50°54' W 001°26'0 0.1
2017-Aug-03 10:20N 50°54' W 001°26'1 0.0
2017-Aug-02 09:52N 50°54' W 001°25'  
2017-Jul-29 18:46N 50°54' W 001°25'0 0.0
2017-Jul-29 13:58N 50°54' W 001°25'0 0.1
2017-Jul-29 10:51N 50°54' W 001°25'2 4.5
2017-Jul-29 10:30N 50°53' W 001°23'5 9.3
2017-Jul-29 10:00N 50°49' W 001°18'4 8.3
2017-Jul-29 09:31N 50°46' W 001°14'815.2
2017-Jul-29 09:00N 50°44' W 001°03'5 9.4
2017-Jul-29 08:31N 50°40' W 000°59'510.0
2017-Jul-29 08:00N 50°35' W 000°60'714.2
2017-Jul-29 07:29N 50°32' W 001°11'5113.3
2017-Jul-29 03:39N 50°20' W 002°29'413.1
2017-Jul-29 03:22N 50°19' W 002°34'513.3
2017-Jul-29 03:00N 50°18' W 002°42'613.0
2017-Jul-29 02:30N 50°14' W 002°50'713.3
2017-Jul-29 02:00N 50°12' W 002°59'5 9.6
2017-Jul-29 01:30N 50°14' W 002°53'3 6.0
2017-Jul-29 01:01N 50°16' W 002°56'611.8
2017-Jul-29 00:31N 50°12' W 003°04'510.6
2017-Jul-29 00:00N 50°13' W 003°12'714.3
2017-Jul-28 23:30N 50°11' W 003°23'714.6
2017-Jul-28 23:00N 50°08' W 003°33'714.5
2017-Jul-28 22:30N 50°05' W 003°44'714.7
2017-Jul-28 22:00N 50°03' W 003°55'714.6
2017-Jul-28 21:30N 50°01' W 004°06'714.6
2017-Jul-28 21:00N 49°60' W 004°17'714.4
2017-Jul-28 20:30N 49°58' W 004°28'  

Dump ship's entire track history